Airfield :
LOGIN :

Register | Disclaimer

   EN    FR    IT 

 










Legend :    VFR   Marginal VFR   IFR   Intensive IFR   Very Intensive IFR
Visi :
Ceiling :
>= 8 km
>= 3000ft
5 to 8 km
1000 to 3000 ft
1500m to 5 km
500 to 1000 ft
800 to 1500m
200 to 500 ft
< 800m
< 200 ft
Symbols :   Thunderstorms  Fog  Heavy snow  Heavy precipitations  Wind > 20 kt
SIGMETs :     Misc.  Thunderstorms  Icing  Turbulence  Mountain Waves  Volcanic Ashes






- Airport Elevation : 53 ft
- IATA code : HAM


EDDH - Hamburg

CURRENT METAR :
  • 241720Z AUTO 29014KT 9999 SCT035 14/08 Q1007 TEMPO 24015G25KT SHRA BKN025CB

EXPIRED METARs :
  • 241650Z AUTO 23014KT 9999 VCSH FEW034 FEW///TCU 16/10 Q1006 TEMPO 24015G25KT SHRA BKN025CB
  • 241620Z AUTO 22011KT 9999 FEW035 16/11 Q1006 TEMPO 24015G25KT SHRA BKN025CB
  • 241550Z AUTO 23011KT 9999 FEW033 16/11 Q1006 TEMPO 24015G25KT
  • 241520Z AUTO 23008KT 9999 -SHRA FEW041 FEW///CB 15/11 Q1006 RESHRA NOSIG
  • 241450Z AUTO 26018G28KT 230V300 9999 -SHRA BKN039 FEW///CB 16/09 Q1005 RESHRA TEMPO 27020G35KT 4000 TSRA BKN020CB

TAF TAF EDDH
Valid from the 24 at 18:00 until the 26 at 00:00 UTC


241700Z 2418/2524 23012KT 9999 BKN025
PROB30
TEMPO 2418/2419 24015G25KT SHRA BKN020CB
BECMG 2418/2420 25004KT
PROB30
TEMPO 2504/2507 BKN009
BECMG 2506/2508 24010KT
PROB30
TEMPO 2508/2517 25015G25KT SHRA BKN020CB



MET'MAP, your aeronautical weather chart ! - Copyright ORBIFLY December 2007 - Disclaimer

ORBIFLY MET'MAP TEAM :

Programming & Development : Alexandra Zaïnal
Original concept : Baudouin d'Aumeries
Technical & hardware support : Manuel Goepfert
Assistance : Marc-Olivier Méhu

Contact : metmap@orbifly.com




SOURCES & CREDITS :

   NOAA